createdAt,value
2019-01-14T00:02:21.270Z,96508.73
2019-01-14T00:05:08.676Z,96504.72
2019-01-14T00:07:55.998Z,96498.02
2019-01-14T00:10:43.298Z,96507.73
2019-01-14T00:13:30.653Z,96516.43
2019-01-14T00:16:17.921Z,96522.66
2019-01-14T00:19:05.136Z,96525.58
2019-01-14T00:21:52.222Z,96531.38
2019-01-14T00:24:39.506Z,96525.74
2019-01-14T00:27:26.956Z,96523.34
2019-01-14T00:30:16.703Z,96536.27
2019-01-14T00:33:04.084Z,96549.54
2019-01-14T00:35:51.062Z,96543.72
2019-01-14T00:38:38.340Z,96545.42
2019-01-14T00:41:25.895Z,96548.02
2019-01-14T00:44:13.407Z,96550.50
2019-01-14T00:47:00.693Z,96563.49
2019-01-14T00:49:48.040Z,96574.62
2019-01-14T00:52:35.249Z,96574.90
2019-01-14T00:55:22.221Z,96576.30
2019-01-14T00:58:09.475Z,96590.60
2019-01-14T01:00:56.448Z,96602.59
2019-01-14T01:03:43.699Z,96604.72
2019-01-14T01:06:30.623Z,96614.56
2019-01-14T01:09:17.686Z,96607.41
2019-01-14T01:12:05.674Z,96614.45
2019-01-14T01:14:52.710Z,96615.27
2019-01-14T01:17:39.809Z,96627.06
2019-01-14T01:20:27.122Z,96609.55
2019-01-14T01:23:14.579Z,96612.45
2019-01-14T01:26:01.382Z,96633.95
2019-01-14T01:28:48.435Z,96659.69
2019-01-14T01:31:35.938Z,96679.69
2019-01-14T01:34:23.360Z,96682.84
2019-01-14T01:37:10.545Z,96693.36
2019-01-14T01:39:57.873Z,96705.27
2019-01-14T01:42:45.512Z,96719.58
2019-01-14T01:45:32.820Z,96750.76
2019-01-14T01:48:20.012Z,96738.95
2019-01-14T01:51:07.346Z,96732.51
2019-01-14T01:53:54.739Z,96744.59
2019-01-14T01:56:41.554Z,96751.55
2019-01-14T01:59:28.832Z,96749.32
2019-01-14T02:02:15.954Z,96763.88
2019-01-14T02:05:03.136Z,96779.28
2019-01-14T02:07:50.738Z,96781.93
2019-01-14T02:10:38.227Z,96779.77
2019-01-14T02:13:25.286Z,96784.22
2019-01-14T02:16:12.728Z,96796.39
2019-01-14T02:19:00.050Z,96799.41
2019-01-14T02:21:47.497Z,96804.23
2019-01-14T02:24:34.663Z,96808.25
2019-01-14T02:27:22.002Z,96831.81
2019-01-14T02:30:15.203Z,96832.05
2019-01-14T02:33:02.464Z,96836.13
2019-01-14T02:35:49.692Z,96844.71
2019-01-14T02:38:37.017Z,96862.81
2019-01-14T02:41:24.279Z,96858.96
2019-01-14T02:44:11.318Z,96863.84
2019-01-14T02:46:58.667Z,96866.80
2019-01-14T02:49:45.772Z,96874.76
2019-01-14T02:52:39.440Z,96871.94
2019-01-14T02:55:21.842Z,96870.66
2019-01-14T02:58:08.999Z,96883.35
2019-01-14T03:00:56.504Z,96885.55
2019-01-14T03:03:43.418Z,96892.30
2019-01-14T03:06:30.747Z,96899.87
2019-01-14T03:09:18.249Z,96903.86
2019-01-14T03:12:05.862Z,96908.35
2019-01-14T03:14:52.914Z,96915.57
2019-01-14T03:17:40.223Z,96931.88
2019-01-14T03:20:27.432Z,96929.62
2019-01-14T03:23:14.570Z,96921.80
2019-01-14T03:26:01.711Z,96923.42
2019-01-14T03:28:48.812Z,96934.22
2019-01-14T03:31:35.919Z,96944.16
2019-01-14T03:34:22.791Z,96950.17
2019-01-14T03:37:09.847Z,96954.16
2019-01-14T03:39:56.963Z,96954.16
2019-01-14T03:42:44.383Z,96958.73
2019-01-14T03:45:31.547Z,96978.84
2019-01-14T03:48:18.459Z,96978.74
2019-01-14T03:51:05.874Z,96980.61
2019-01-14T03:53:53.154Z,96996.30
2019-01-14T03:56:40.588Z,96986.80
2019-01-14T03:59:27.675Z,96993.97
2019-01-14T04:02:15.132Z,97007.85
2019-01-14T04:05:02.579Z,97016.95
2019-01-14T04:07:50.078Z,97015.30
2019-01-14T04:10:37.517Z,97031.69
2019-01-14T04:13:24.601Z,97037.28
2019-01-14T04:16:11.871Z,97051.14
2019-01-14T04:18:59.368Z,97053.62
2019-01-14T04:21:46.215Z,97066.37
2019-01-14T04:24:33.519Z,97072.02
2019-01-14T04:27:20.728Z,97079.36
2019-01-14T04:30:11.474Z,97085.95
2019-01-14T04:32:58.666Z,97086.92
2019-01-14T04:35:46.133Z,97094.64
2019-01-14T04:38:33.813Z,97102.39
2019-01-14T04:41:20.858Z,97097.21
2019-01-14T04:44:08.012Z,97101.55
2019-01-14T04:46:55.889Z,97107.75
2019-01-14T04:49:43.647Z,97117.16
2019-01-14T04:52:31.130Z,97116.89
2019-01-14T04:55:18.413Z,97121.06
2019-01-14T04:58:06.461Z,97131.47
2019-01-14T05:00:53.842Z,97133.18
2019-01-14T05:03:41.182Z,97134.61
2019-01-14T05:06:28.487Z,97131.62
2019-01-14T05:09:15.956Z,97140.38
2019-01-14T05:12:03.129Z,97144.14
2019-01-14T05:14:50.201Z,97142.76
2019-01-14T05:17:37.119Z,97141.72
2019-01-14T05:20:25.750Z,97143.00
2019-01-14T05:23:12.923Z,97134.70
2019-01-14T05:26:00.111Z,97142.95
2019-01-14T05:28:46.928Z,97137.66
2019-01-14T05:31:34.129Z,97137.84
2019-01-14T05:34:20.962Z,97149.13
2019-01-14T05:37:08.515Z,97146.12
2019-01-14T05:39:55.650Z,97158.33
2019-01-14T05:42:42.552Z,97156.84
2019-01-14T05:45:29.800Z,97158.98
2019-01-14T05:48:16.574Z,97163.66
2019-01-14T05:51:04.004Z,97165.97
2019-01-14T05:53:51.472Z,97169.94
2019-01-14T05:56:38.915Z,97177.33
2019-01-14T05:59:25.971Z,97186.73
2019-01-14T06:02:16.278Z,97183.04
2019-01-14T06:05:04.499Z,97178.05
2019-01-14T06:07:51.803Z,97184.16
2019-01-14T06:10:38.614Z,97191.18
2019-01-14T06:13:25.901Z,97194.94
2019-01-14T06:16:13.135Z,97191.08
2019-01-14T06:19:00.537Z,97185.27
2019-01-14T06:21:51.022Z,97191.96
2019-01-14T06:24:38.338Z,97199.34
2019-01-14T06:27:25.700Z,97202.48
2019-01-14T06:30:21.557Z,97212.92
2019-01-14T06:33:08.863Z,97212.27
2019-01-14T06:35:56.120Z,97221.23
2019-01-14T06:38:43.539Z,97222.20
2019-01-14T06:41:31.010Z,97224.03
2019-01-14T06:44:18.100Z,97224.41
2019-01-14T06:47:05.339Z,97236.39
2019-01-14T06:49:52.512Z,97248.87
2019-01-14T06:52:39.953Z,97244.04
2019-01-14T06:55:27.156Z,97248.16
2019-01-14T06:58:14.360Z,97260.55
2019-01-14T07:01:01.496Z,97260.00
2019-01-14T07:03:48.613Z,97262.86
2019-01-14T07:06:36.173Z,97261.78
2019-01-14T07:09:23.697Z,97255.97
2019-01-14T07:12:11.070Z,97263.34
2019-01-14T07:14:58.308Z,97271.73
2019-01-14T07:17:45.840Z,97271.13
2019-01-14T07:20:33.337Z,97263.13
2019-01-14T07:23:20.428Z,97274.28
2019-01-14T07:26:07.442Z,97270.06
2019-01-14T07:28:54.610Z,97281.58
2019-01-14T07:31:42.191Z,97279.56
2019-01-14T07:34:29.390Z,97287.56
2019-01-14T07:37:16.777Z,97289.80
2019-01-14T07:40:06.540Z,97292.65
2019-01-14T07:42:54.108Z,97296.11
2019-01-14T07:45:41.532Z,97302.13
2019-01-14T07:48:28.886Z,97303.78
2019-01-14T07:51:16.084Z,97320.99
2019-01-14T07:54:03.219Z,97328.96
2019-01-14T07:56:50.279Z,97324.91
2019-01-14T07:59:37.556Z,97329.68
2019-01-14T08:02:24.843Z,97328.13
2019-01-14T08:05:12.374Z,97330.16
2019-01-14T08:07:59.504Z,97333.21
2019-01-14T08:10:46.910Z,97336.47
2019-01-14T08:13:34.087Z,97345.22
2019-01-14T08:16:21.259Z,97335.05
2019-01-14T08:19:08.483Z,97341.49
2019-01-14T08:21:55.539Z,97342.21
2019-01-14T08:24:42.895Z,97342.89
2019-01-14T08:27:30.334Z,97340.59
2019-01-14T08:30:19.936Z,97343.80
2019-01-14T08:33:06.706Z,97347.45
2019-01-14T08:35:54.098Z,97352.70
2019-01-14T08:38:41.447Z,97352.61
2019-01-14T08:41:30.567Z,97358.73
2019-01-14T08:44:18.462Z,97366.91
2019-01-14T08:47:05.863Z,97369.30
2019-01-14T08:49:53.311Z,97367.92
2019-01-14T08:52:40.571Z,97376.95
2019-01-14T08:55:27.683Z,97376.23
2019-01-14T08:58:14.786Z,97368.61
2019-01-14T09:01:02.303Z,97378.11
2019-01-14T09:03:49.403Z,97379.74
2019-01-14T09:06:36.923Z,97376.67
2019-01-14T09:09:24.381Z,97389.47
2019-01-14T09:12:11.469Z,97188.84
2019-01-14T09:14:58.974Z,97383.55
2019-01-14T09:17:46.388Z,97382.39
2019-01-14T09:20:33.662Z,97381.88
2019-01-14T09:23:21.080Z,97393.80
2019-01-14T09:26:08.244Z,97381.45
2019-01-14T09:28:55.956Z,97390.66
2019-01-14T09:31:43.448Z,97374.39
2019-01-14T09:34:30.532Z,97388.98
2019-01-14T09:37:18.034Z,97399.45
2019-01-14T09:40:11.069Z,97388.86
2019-01-14T09:42:58.340Z,97396.77
2019-01-14T09:45:45.519Z,97408.14
2019-01-14T09:48:32.517Z,97416.87
2019-01-14T09:51:19.915Z,97412.27
2019-01-14T09:54:07.366Z,97412.39
2019-01-14T09:56:54.487Z,97413.15
2019-01-14T09:59:41.834Z,97430.52
2019-01-14T10:02:28.914Z,97421.16
2019-01-14T10:05:17.792Z,97434.84
2019-01-14T10:08:04.717Z,97420.09
2019-01-14T10:10:51.984Z,97424.73
2019-01-14T10:13:39.358Z,97424.40
2019-01-14T10:16:26.519Z,97436.81
2019-01-14T10:19:13.385Z,97420.62
2019-01-14T10:22:00.469Z,97441.92
2019-01-14T10:24:47.760Z,97444.51
2019-01-14T10:27:35.271Z,97433.67
2019-01-14T10:30:22.612Z,97423.55
2019-01-14T10:33:09.680Z,97442.45
2019-01-14T10:35:56.787Z,97451.06
2019-01-14T10:38:50.362Z,97447.86
2019-01-14T10:41:33.213Z,97452.14
2019-01-14T10:44:20.382Z,97460.44
2019-01-14T10:47:07.533Z,97461.36
2019-01-14T10:49:54.758Z,97461.56
2019-01-14T10:52:42.000Z,97464.66
2019-01-14T10:55:29.075Z,97454.05
2019-01-14T10:58:16.585Z,97463.33
2019-01-14T11:01:03.893Z,97469.86
2019-01-14T11:03:51.107Z,97479.42
2019-01-14T11:06:39.447Z,97479.33
2019-01-14T11:09:26.539Z,97472.75
2019-01-14T11:12:13.939Z,97475.70
2019-01-14T11:15:02.886Z,97476.05
2019-01-14T11:17:50.676Z,97478.19
2019-01-14T11:20:37.885Z,97485.98
2019-01-14T11:23:24.956Z,97474.86
2019-01-14T11:26:13.074Z,97464.15
2019-01-14T11:29:00.333Z,97472.17
2019-01-14T11:31:47.454Z,97472.84
2019-01-14T11:34:34.527Z,97463.55
2019-01-14T11:37:21.426Z,97497.30
2019-01-14T11:40:17.817Z,97477.56
2019-01-14T11:43:05.548Z,97480.51
2019-01-14T11:45:53.032Z,97482.95
2019-01-14T11:48:40.183Z,97494.83
2019-01-14T11:51:27.113Z,97480.92
2019-01-14T11:54:15.436Z,97479.91
2019-01-14T11:57:02.553Z,97471.63
2019-01-14T11:59:49.468Z,97482.00
2019-01-14T12:02:39.605Z,97476.38
2019-01-14T12:05:25.750Z,97488.93
2019-01-14T12:08:12.678Z,97496.30
2019-01-14T12:10:59.853Z,97497.00
2019-01-14T12:13:46.738Z,97501.06
2019-01-14T12:16:33.817Z,97496.16
2019-01-14T12:19:21.006Z,97507.04
2019-01-14T12:22:08.557Z,97505.41
2019-01-14T12:24:56.017Z,97510.55
2019-01-14T12:27:42.914Z,97513.48
2019-01-14T12:30:38.445Z,97524.27
2019-01-14T12:33:25.790Z,97520.59
2019-01-14T12:36:12.990Z,97523.86
2019-01-14T12:39:00.246Z,97523.13
2019-01-14T12:41:51.045Z,97526.54
2019-01-14T12:44:35.874Z,97528.38
2019-01-14T12:47:23.204Z,97527.59
2019-01-14T12:50:15.667Z,97520.61
2019-01-14T12:53:02.911Z,97523.70
2019-01-14T12:55:50.200Z,97540.09
2019-01-14T12:58:37.089Z,97538.59
2019-01-14T13:01:24.469Z,97539.48
2019-01-14T13:04:11.655Z,97549.01
2019-01-14T13:06:59.011Z,97536.11
2019-01-14T13:09:46.383Z,97542.00
2019-01-14T13:12:33.752Z,97547.38
2019-01-14T13:15:23.684Z,97551.88
2019-01-14T13:18:10.946Z,97546.16
2019-01-14T13:20:58.040Z,97534.05
2019-01-14T13:23:45.118Z,97555.64
2019-01-14T13:26:32.174Z,97554.02
2019-01-14T13:29:19.674Z,97555.30
2019-01-14T13:32:07.000Z,97552.51
2019-01-14T13:34:54.376Z,97549.41
2019-01-14T13:37:41.526Z,97567.79
2019-01-14T13:40:28.508Z,97569.52
2019-01-14T13:43:15.585Z,97576.77
2019-01-14T13:46:02.712Z,97586.11
2019-01-14T13:48:49.709Z,97595.73
2019-01-14T13:51:37.226Z,97594.42
2019-01-14T13:54:24.363Z,97606.48
2019-01-14T13:57:11.469Z,97603.17
2019-01-14T13:59:59.061Z,97600.98
2019-01-14T14:02:45.937Z,97609.98
2019-01-14T14:05:33.258Z,97621.80
2019-01-14T14:08:20.526Z,97625.23
2019-01-14T14:11:07.679Z,97619.25
2019-01-14T14:13:55.070Z,97628.36
2019-01-14T14:16:42.290Z,97631.30
2019-01-14T14:19:29.714Z,97644.84
2019-01-14T14:22:16.809Z,97659.17
2019-01-14T14:25:04.919Z,97676.41
2019-01-14T14:27:52.396Z,97675.58
2019-01-14T14:30:40.114Z,97687.19
2019-01-14T14:33:27.570Z,97673.02
2019-01-14T14:36:14.979Z,97683.89
2019-01-14T14:39:02.274Z,97696.82
2019-01-14T14:41:49.285Z,97696.05
2019-01-14T14:44:36.587Z,97708.59
2019-01-14T14:47:23.568Z,97707.79
2019-01-14T14:50:20.695Z,97718.88
2019-01-14T14:53:07.974Z,97718.61
2019-01-14T14:55:55.318Z,97727.73
2019-01-14T14:58:42.499Z,97742.30
2019-01-14T15:01:29.435Z,97736.14
2019-01-14T15:04:16.745Z,97744.10
2019-01-14T15:07:04.009Z,97754.89
2019-01-14T15:09:55.854Z,97761.52
2019-01-14T15:12:40.191Z,97773.00
2019-01-14T15:15:28.244Z,97769.14
2019-01-14T15:18:15.388Z,97771.03
2019-01-14T15:21:02.286Z,97779.83
2019-01-14T15:23:49.193Z,97787.99
2019-01-14T15:26:36.433Z,97790.81
2019-01-14T15:29:23.499Z,97794.36
2019-01-14T15:32:11.049Z,97805.77
2019-01-14T15:34:58.217Z,97814.73
2019-01-14T15:37:45.121Z,97821.73
2019-01-14T15:40:32.356Z,97822.58
2019-01-14T15:43:19.799Z,97832.07
2019-01-14T15:46:06.799Z,97837.12
2019-01-14T15:48:53.964Z,97845.97
2019-01-14T15:51:41.611Z,97870.22
2019-01-14T15:54:28.768Z,97882.29
2019-01-14T15:57:15.839Z,97886.30
2019-01-14T16:00:09.368Z,97875.33
2019-01-14T16:02:56.591Z,97878.42
2019-01-14T16:05:43.890Z,97878.16
2019-01-14T16:08:30.941Z,97880.97
2019-01-14T16:11:18.342Z,97887.30
2019-01-14T16:14:05.583Z,97893.95
2019-01-14T16:16:52.861Z,97893.62
2019-01-14T16:19:39.986Z,97893.07
2019-01-14T16:22:27.359Z,97902.10
2019-01-14T16:25:15.000Z,97903.30
2019-01-14T16:28:04.115Z,97910.90
2019-01-14T16:30:50.979Z,97915.70
2019-01-14T16:33:38.165Z,97926.33
2019-01-14T16:36:25.609Z,97934.16
2019-01-14T16:39:12.776Z,97938.53
2019-01-14T16:41:59.680Z,97939.95
2019-01-14T16:44:47.268Z,97939.25
2019-01-14T16:47:34.432Z,97938.42
2019-01-14T16:50:21.856Z,97948.67
2019-01-14T16:53:09.462Z,97957.14
2019-01-14T16:55:56.788Z,97954.30
2019-01-14T16:58:43.640Z,97965.03
2019-01-14T17:01:30.924Z,97965.63
2019-01-14T17:04:18.306Z,97978.39
2019-01-14T17:07:05.844Z,97987.91
2019-01-14T17:09:54.902Z,97997.45
2019-01-14T17:12:41.858Z,97992.70
2019-01-14T17:15:30.615Z,97997.62
2019-01-14T17:18:18.324Z,97998.16
2019-01-14T17:21:10.198Z,97992.73
2019-01-14T17:23:57.229Z,98001.95
2019-01-14T17:26:49.290Z,98008.81
2019-01-14T17:29:36.687Z,98008.56
2019-01-14T17:32:23.863Z,98005.75
2019-01-14T17:35:11.071Z,98011.20
2019-01-14T17:38:02.626Z,98005.14
2019-01-14T17:40:50.043Z,98017.84
2019-01-14T17:43:37.223Z,98012.42
2019-01-14T17:46:30.041Z,98032.20
2019-01-14T17:49:17.574Z,98026.03
2019-01-14T17:52:05.482Z,98028.95
2019-01-14T17:54:55.647Z,98029.25
2019-01-14T17:57:42.994Z,98028.05
2019-01-14T18:00:29.949Z,98030.01
2019-01-14T18:03:17.245Z,98036.10
2019-01-14T18:06:04.731Z,98046.68
2019-01-14T18:08:51.879Z,98054.59
2019-01-14T18:11:44.729Z,98063.13
2019-01-14T18:14:31.844Z,98061.56
2019-01-14T18:17:18.953Z,98068.04
2019-01-14T18:20:09.550Z,98072.60
2019-01-14T18:22:56.953Z,98071.54
2019-01-14T18:25:44.129Z,98089.77
2019-01-14T18:28:31.532Z,98094.94
2019-01-14T18:31:20.737Z,98096.09
2019-01-14T18:34:07.939Z,98088.20
2019-01-14T18:36:55.390Z,98096.14
2019-01-14T18:39:42.582Z,98089.66
2019-01-14T18:42:29.545Z,98098.44
2019-01-14T18:45:18.045Z,98101.24
2019-01-14T18:48:05.369Z,98101.72
2019-01-14T18:50:52.766Z,98108.50
2019-01-14T18:53:44.095Z,98107.75
2019-01-14T18:56:31.127Z,98124.55
2019-01-14T18:59:17.845Z,98120.33
2019-01-14T19:02:05.471Z,98135.70
2019-01-14T19:04:52.984Z,98134.70
2019-01-14T19:07:44.810Z,98133.67
2019-01-14T19:10:33.247Z,98130.25
2019-01-14T19:13:25.220Z,98139.50
2019-01-14T19:16:16.414Z,98134.13
2019-01-14T19:19:04.454Z,98136.32
2019-01-14T19:21:51.700Z,98146.38
2019-01-14T19:24:38.906Z,98143.86
2019-01-14T19:27:26.071Z,98142.50
2019-01-14T19:30:18.601Z,98151.89
2019-01-14T19:33:07.553Z,98158.68
2019-01-14T19:35:55.108Z,98164.36
2019-01-14T19:38:42.262Z,98173.65
2019-01-14T19:41:29.153Z,98184.47
2019-01-14T19:44:15.943Z,98181.16
2019-01-14T19:47:03.346Z,98163.13
2019-01-14T19:49:50.416Z,98180.30
2019-01-14T19:52:37.634Z,98190.13
2019-01-14T19:55:26.521Z,98193.97
2019-01-14T19:58:13.920Z,98194.79
2019-01-14T20:01:01.041Z,98190.80
2019-01-14T20:03:48.096Z,98199.92
2019-01-14T20:06:35.359Z,98199.36
2019-01-14T20:09:22.528Z,98201.61
2019-01-14T20:12:10.851Z,98202.23
2019-01-14T20:14:58.091Z,98207.72
2019-01-14T20:17:45.247Z,98203.20
2019-01-14T20:20:32.555Z,98210.47
2019-01-14T20:23:19.782Z,98206.08
2019-01-14T20:26:07.325Z,98215.59
2019-01-14T20:28:54.899Z,98217.16
2019-01-14T20:31:41.990Z,98218.52
2019-01-14T20:34:29.196Z,98221.92
2019-01-14T20:37:16.348Z,98225.98
2019-01-14T20:40:05.028Z,98225.48
2019-01-14T20:42:52.449Z,98213.98
2019-01-14T20:45:39.719Z,98222.59
2019-01-14T20:48:27.221Z,98215.08
2019-01-14T20:51:14.418Z,98216.25
2019-01-14T20:54:01.704Z,98216.48
2019-01-14T20:56:48.857Z,98226.50
2019-01-14T20:59:38.637Z,98229.20
2019-01-14T21:02:24.826Z,98236.83
2019-01-14T21:05:12.098Z,98245.98
2019-01-14T21:07:59.315Z,98241.41
2019-01-14T21:10:46.521Z,98240.83
2019-01-14T21:13:33.477Z,98244.14
2019-01-14T21:16:20.741Z,98239.30
2019-01-14T21:19:07.668Z,98243.97
2019-01-14T21:21:54.821Z,98243.05
2019-01-14T21:24:42.107Z,98236.66
2019-01-14T21:27:29.566Z,98236.43
2019-01-14T21:30:21.631Z,98239.28
2019-01-14T21:33:09.388Z,98244.81
2019-01-14T21:35:56.623Z,98245.47
2019-01-14T21:38:43.652Z,98249.53
2019-01-14T21:41:31.575Z,98255.56
2019-01-14T21:44:18.735Z,98255.20
2019-01-14T21:47:05.825Z,98265.36
2019-01-14T21:49:53.059Z,98264.13
2019-01-14T21:52:40.865Z,98267.92
2019-01-14T21:55:28.123Z,98274.55
2019-01-14T21:58:15.012Z,98277.05
2019-01-14T22:01:02.337Z,98276.00
2019-01-14T22:03:49.538Z,98276.58
2019-01-14T22:06:36.762Z,98280.36
2019-01-14T22:09:23.800Z,98272.53
2019-01-14T22:12:10.847Z,98271.03
2019-01-14T22:14:58.025Z,98269.73
2019-01-14T22:17:45.186Z,98269.03
2019-01-14T22:20:32.440Z,98267.89
2019-01-14T22:23:19.754Z,98270.27
2019-01-14T22:26:07.209Z,98280.53
2019-01-14T22:28:54.026Z,98283.08
2019-01-14T22:31:41.124Z,98285.88
2019-01-14T22:34:28.421Z,98290.94
2019-01-14T22:37:15.473Z,98288.23
2019-01-14T22:40:03.344Z,98288.77
2019-01-14T22:42:50.712Z,98284.52
2019-01-14T22:45:38.063Z,98292.98
2019-01-14T22:48:25.398Z,98284.56
2019-01-14T22:51:12.493Z,98285.33
2019-01-14T22:53:59.609Z,98290.40
2019-01-14T22:56:46.972Z,98289.66
2019-01-14T22:59:34.416Z,98294.70
2019-01-14T23:02:21.989Z,98299.03
2019-01-14T23:05:09.193Z,98299.56
2019-01-14T23:07:56.666Z,98306.57
2019-01-14T23:10:44.291Z,98309.73
2019-01-14T23:13:31.521Z,98202.48
2019-01-14T23:16:18.742Z,98323.62
2019-01-14T23:19:06.519Z,98321.18
2019-01-14T23:21:53.762Z,98324.89
2019-01-14T23:24:40.844Z,98330.88
2019-01-14T23:27:27.885Z,98334.59
2019-01-14T23:30:15.546Z,98325.66
2019-01-14T23:33:02.673Z,98334.50
2019-01-14T23:35:49.834Z,98344.79
2019-01-14T23:38:37.144Z,98341.09
2019-01-14T23:41:24.036Z,98345.31
2019-01-14T23:44:11.303Z,98347.87
2019-01-14T23:46:58.112Z,98343.88
2019-01-14T23:49:45.480Z,98334.41
2019-01-14T23:52:32.645Z,98332.84
2019-01-14T23:55:20.067Z,98332.78
2019-01-14T23:58:07.066Z,98332.41
